sensor_id;sensor_type;location;lat;lon;timestamp;P1;durP1;ratioP1;P2;durP2;ratioP2
6973;SDS011;3527;52.376;8.990;2023-09-19T00:02:03;6.80;;;4.40;;
6973;SDS011;3527;52.376;8.990;2023-09-19T00:04:35;5.40;;;3.90;;
6973;SDS011;3527;52.376;8.990;2023-09-19T00:07:06;8.20;;;4.73;;
6973;SDS011;3527;52.376;8.990;2023-09-19T00:09:32;7.80;;;4.53;;
6973;SDS011;3527;52.376;8.990;2023-09-19T00:12:06;8.03;;;4.70;;
6973;SDS011;3527;52.376;8.990;2023-09-19T00:14:35;6.03;;;4.80;;
6973;SDS011;3527;52.376;8.990;2023-09-19T00:17:02;11.23;;;4.90;;
6973;SDS011;3527;52.376;8.990;2023-09-19T00:19:35;8.37;;;4.57;;
6973;SDS011;3527;52.376;8.990;2023-09-19T00:22:02;7.73;;;4.40;;
6973;SDS011;3527;52.376;8.990;2023-09-19T00:24:29;7.30;;;4.73;;
6973;SDS011;3527;52.376;8.990;2023-09-19T00:26:56;6.23;;;4.37;;
6973;SDS011;3527;52.376;8.990;2023-09-19T00:29:22;11.10;;;4.80;;
6973;SDS011;3527;52.376;8.990;2023-09-19T00:31:49;7.93;;;4.70;;
6973;SDS011;3527;52.376;8.990;2023-09-19T00:34:16;7.10;;;4.53;;
6973;SDS011;3527;52.376;8.990;2023-09-19T00:36:43;8.40;;;4.90;;
6973;SDS011;3527;52.376;8.990;2023-09-19T00:39:11;9.43;;;4.70;;
6973;SDS011;3527;52.376;8.990;2023-09-19T00:41:38;10.20;;;4.70;;
6973;SDS011;3527;52.376;8.990;2023-09-19T00:44:04;7.80;;;4.73;;
6973;SDS011;3527;52.376;8.990;2023-09-19T00:46:31;10.67;;;5.27;;
6973;SDS011;3527;52.376;8.990;2023-09-19T00:48:59;9.37;;;5.10;;
6973;SDS011;3527;52.376;8.990;2023-09-19T00:51:26;11.77;;;5.43;;
6973;SDS011;3527;52.376;8.990;2023-09-19T00:53:54;7.37;;;5.03;;
6973;SDS011;3527;52.376;8.990;2023-09-19T00:56:21;9.80;;;5.20;;
6973;SDS011;3527;52.376;8.990;2023-09-19T00:58:47;7.80;;;4.43;;
6973;SDS011;3527;52.376;8.990;2023-09-19T01:01:14;11.23;;;5.23;;
6973;SDS011;3527;52.376;8.990;2023-09-19T01:03:42;9.30;;;4.97;;
6973;SDS011;3527;52.376;8.990;2023-09-19T01:06:09;11.57;;;5.10;;
6973;SDS011;3527;52.376;8.990;2023-09-19T01:08:36;5.63;;;4.20;;
6973;SDS011;3527;52.376;8.990;2023-09-19T01:11:09;8.73;;;4.57;;
6973;SDS011;3527;52.376;8.990;2023-09-19T01:16:10;10.67;;;4.10;;
6973;SDS011;3527;52.376;8.990;2023-09-19T01:21:36;10.50;;;4.40;;
6973;SDS011;3527;52.376;8.990;2023-09-19T01:29:42;8.30;;;4.30;;
6973;SDS011;3527;52.376;8.990;2023-09-19T01:32:11;10.53;;;4.60;;
6973;SDS011;3527;52.376;8.990;2023-09-19T01:34:45;8.30;;;4.20;;
6973;SDS011;3527;52.376;8.990;2023-09-19T01:37:14;8.47;;;4.73;;
6973;SDS011;3527;52.376;8.990;2023-09-19T01:39:41;7.93;;;4.60;;
6973;SDS011;3527;52.376;8.990;2023-09-19T01:42:23;8.97;;;4.60;;
6973;SDS011;3527;52.376;8.990;2023-09-19T01:45:06;9.03;;;4.43;;
6973;SDS011;3527;52.376;8.990;2023-09-19T01:47:43;5.87;;;3.60;;
6973;SDS011;3527;52.376;8.990;2023-09-19T01:52:57;9.13;;;3.87;;
6973;SDS011;3527;52.376;8.990;2023-09-19T01:55:23;10.47;;;3.80;;
6973;SDS011;3527;52.376;8.990;2023-09-19T01:58:07;8.47;;;3.50;;
6973;SDS011;3527;52.376;8.990;2023-09-19T02:00:36;6.87;;;3.23;;
6973;SDS011;3527;52.376;8.990;2023-09-19T02:03:03;11.63;;;3.80;;
6973;SDS011;3527;52.376;8.990;2023-09-19T02:05:30;7.20;;;3.40;;
6973;SDS011;3527;52.376;8.990;2023-09-19T02:07:57;8.73;;;3.50;;
6973;SDS011;3527;52.376;8.990;2023-09-19T02:10:25;9.77;;;3.90;;
6973;SDS011;3527;52.376;8.990;2023-09-19T02:12:51;8.93;;;3.50;;
6973;SDS011;3527;52.376;8.990;2023-09-19T02:15:19;7.27;;;3.17;;
6973;SDS011;3527;52.376;8.990;2023-09-19T02:17:45;9.40;;;3.70;;
6973;SDS011;3527;52.376;8.990;2023-09-19T02:20:12;8.80;;;3.30;;
6973;SDS011;3527;52.376;8.990;2023-09-19T02:22:43;8.77;;;3.43;;
6973;SDS011;3527;52.376;8.990;2023-09-19T02:25:11;7.80;;;3.40;;
6973;SDS011;3527;52.376;8.990;2023-09-19T02:27:37;9.10;;;3.30;;
6973;SDS011;3527;52.376;8.990;2023-09-19T02:30:06;13.57;;;3.80;;
6973;SDS011;3527;52.376;8.990;2023-09-19T02:32:33;9.57;;;3.53;;
6973;SDS011;3527;52.376;8.990;2023-09-19T02:35:03;10.17;;;3.70;;
6973;SDS011;3527;52.376;8.990;2023-09-19T02:37:31;10.27;;;3.90;;
6973;SDS011;3527;52.376;8.990;2023-09-19T02:39:58;8.80;;;3.87;;
6973;SDS011;3527;52.376;8.990;2023-09-19T02:42:24;8.83;;;3.60;;
6973;SDS011;3527;52.376;8.990;2023-09-19T02:44:51;8.47;;;3.60;;
6973;SDS011;3527;52.376;8.990;2023-09-19T02:47:18;7.63;;;3.50;;
6973;SDS011;3527;52.376;8.990;2023-09-19T02:49:46;12.73;;;3.40;;
6973;SDS011;3527;52.376;8.990;2023-09-19T02:52:12;6.77;;;2.90;;
6973;SDS011;3527;52.376;8.990;2023-09-19T02:54:41;7.70;;;3.73;;
6973;SDS011;3527;52.376;8.990;2023-09-19T02:57:08;5.60;;;3.23;;
6973;SDS011;3527;52.376;8.990;2023-09-19T02:59:34;9.67;;;3.40;;
6973;SDS011;3527;52.376;8.990;2023-09-19T03:02:03;7.73;;;3.50;;
6973;SDS011;3527;52.376;8.990;2023-09-19T03:04:31;9.23;;;3.80;;
6973;SDS011;3527;52.376;8.990;2023-09-19T03:06:59;9.30;;;3.80;;
6973;SDS011;3527;52.376;8.990;2023-09-19T03:09:27;10.47;;;3.70;;
6973;SDS011;3527;52.376;8.990;2023-09-19T03:11:54;8.67;;;3.70;;
6973;SDS011;3527;52.376;8.990;2023-09-19T03:14:21;11.00;;;3.70;;
6973;SDS011;3527;52.376;8.990;2023-09-19T03:16:47;10.53;;;4.13;;
6973;SDS011;3527;52.376;8.990;2023-09-19T03:19:14;9.13;;;3.30;;
6973;SDS011;3527;52.376;8.990;2023-09-19T03:21:41;7.70;;;3.63;;
6973;SDS011;3527;52.376;8.990;2023-09-19T03:24:08;10.27;;;3.63;;
6973;SDS011;3527;52.376;8.990;2023-09-19T03:26:34;8.57;;;3.90;;
6973;SDS011;3527;52.376;8.990;2023-09-19T03:29:05;9.63;;;3.90;;
6973;SDS011;3527;52.376;8.990;2023-09-19T03:31:36;11.97;;;4.53;;
6973;SDS011;3527;52.376;8.990;2023-09-19T03:34:03;9.23;;;3.67;;
6973;SDS011;3527;52.376;8.990;2023-09-19T03:36:30;10.53;;;3.40;;
6973;SDS011;3527;52.376;8.990;2023-09-19T03:38:57;9.00;;;3.40;;
6973;SDS011;3527;52.376;8.990;2023-09-19T03:41:23;8.10;;;3.83;;
6973;SDS011;3527;52.376;8.990;2023-09-19T03:43:50;11.07;;;3.97;;
6973;SDS011;3527;52.376;8.990;2023-09-19T03:46:18;8.73;;;3.90;;
6973;SDS011;3527;52.376;8.990;2023-09-19T03:48:45;7.47;;;3.87;;
6973;SDS011;3527;52.376;8.990;2023-09-19T03:51:11;10.13;;;4.23;;
6973;SDS011;3527;52.376;8.990;2023-09-19T03:53:38;12.20;;;3.80;;
6973;SDS011;3527;52.376;8.990;2023-09-19T03:56:05;10.13;;;3.67;;
6973;SDS011;3527;52.376;8.990;2023-09-19T03:58:31;11.10;;;3.60;;
6973;SDS011;3527;52.376;8.990;2023-09-19T04:01:00;10.73;;;4.30;;
6973;SDS011;3527;52.376;8.990;2023-09-19T04:03:27;11.07;;;4.07;;
6973;SDS011;3527;52.376;8.990;2023-09-19T04:06:02;10.90;;;3.90;;
6973;SDS011;3527;52.376;8.990;2023-09-19T04:08:29;11.73;;;3.57;;
6973;SDS011;3527;52.376;8.990;2023-09-19T04:10:56;11.97;;;3.80;;
6973;SDS011;3527;52.376;8.990;2023-09-19T04:13:23;12.33;;;4.07;;
6973;SDS011;3527;52.376;8.990;2023-09-19T04:15:50;12.70;;;4.27;;
6973;SDS011;3527;52.376;8.990;2023-09-19T04:18:37;9.37;;;4.30;;
6973;SDS011;3527;52.376;8.990;2023-09-19T04:21:24;9.93;;;3.63;;
6973;SDS011;3527;52.376;8.990;2023-09-19T04:23:52;11.30;;;4.00;;
6973;SDS011;3527;52.376;8.990;2023-09-19T04:26:19;12.13;;;4.40;;
6973;SDS011;3527;52.376;8.990;2023-09-19T04:28:46;12.50;;;4.10;;
6973;SDS011;3527;52.376;8.990;2023-09-19T04:31:12;11.33;;;4.83;;
6973;SDS011;3527;52.376;8.990;2023-09-19T04:33:40;10.93;;;4.37;;
6973;SDS011;3527;52.376;8.990;2023-09-19T04:36:07;14.90;;;4.57;;
6973;SDS011;3527;52.376;8.990;2023-09-19T04:38:54;11.80;;;4.40;;
6973;SDS011;3527;52.376;8.990;2023-09-19T04:41:21;10.33;;;3.87;;
6973;SDS011;3527;52.376;8.990;2023-09-19T04:43:48;13.50;;;4.67;;
6973;SDS011;3527;52.376;8.990;2023-09-19T04:46:17;12.50;;;4.33;;
6973;SDS011;3527;52.376;8.990;2023-09-19T04:48:44;11.90;;;4.07;;
6973;SDS011;3527;52.376;8.990;2023-09-19T04:51:10;10.40;;;4.23;;
6973;SDS011;3527;52.376;8.990;2023-09-19T04:53:37;11.20;;;4.20;;
6973;SDS011;3527;52.376;8.990;2023-09-19T04:56:04;9.07;;;3.77;;
6973;SDS011;3527;52.376;8.990;2023-09-19T04:58:33;12.13;;;4.53;;
6973;SDS011;3527;52.376;8.990;2023-09-19T05:01:00;17.43;;;4.83;;
6973;SDS011;3527;52.376;8.990;2023-09-19T05:03:30;11.23;;;4.37;;
6973;SDS011;3527;52.376;8.990;2023-09-19T05:05:57;11.50;;;4.33;;
6973;SDS011;3527;52.376;8.990;2023-09-19T05:08:24;14.57;;;4.17;;
6973;SDS011;3527;52.376;8.990;2023-09-19T05:10:50;14.20;;;4.30;;
6973;SDS011;3527;52.376;8.990;2023-09-19T05:13:17;11.27;;;3.93;;
6973;SDS011;3527;52.376;8.990;2023-09-19T05:15:44;11.33;;;4.03;;
6973;SDS011;3527;52.376;8.990;2023-09-19T05:18:10;9.73;;;3.83;;
6973;SDS011;3527;52.376;8.990;2023-09-19T05:20:37;9.37;;;4.20;;
6973;SDS011;3527;52.376;8.990;2023-09-19T05:23:05;11.23;;;3.80;;
6973;SDS011;3527;52.376;8.990;2023-09-19T05:25:36;13.13;;;4.00;;
6973;SDS011;3527;52.376;8.990;2023-09-19T05:28:04;14.03;;;3.90;;
6973;SDS011;3527;52.376;8.990;2023-09-19T05:30:32;10.30;;;3.33;;
6973;SDS011;3527;52.376;8.990;2023-09-19T05:32:58;14.83;;;4.57;;
6973;SDS011;3527;52.376;8.990;2023-09-19T05:35:25;11.93;;;4.27;;
6973;SDS011;3527;52.376;8.990;2023-09-19T05:37:53;10.70;;;3.87;;
6973;SDS011;3527;52.376;8.990;2023-09-19T05:40:20;10.73;;;4.27;;
6973;SDS011;3527;52.376;8.990;2023-09-19T05:42:47;12.13;;;3.80;;
6973;SDS011;3527;52.376;8.990;2023-09-19T05:45:14;8.47;;;3.47;;
6973;SDS011;3527;52.376;8.990;2023-09-19T05:48:09;8.83;;;3.83;;
6973;SDS011;3527;52.376;8.990;2023-09-19T05:50:43;12.60;;;3.77;;
6973;SDS011;3527;52.376;8.990;2023-09-19T05:53:13;9.20;;;3.73;;
6973;SDS011;3527;52.376;8.990;2023-09-19T05:55:42;12.53;;;3.90;;
6973;SDS011;3527;52.376;8.990;2023-09-19T05:58:09;12.43;;;4.23;;
6973;SDS011;3527;52.376;8.990;2023-09-19T06:00:37;10.97;;;3.70;;
6973;SDS011;3527;52.376;8.990;2023-09-19T06:03:05;15.27;;;4.00;;
6973;SDS011;3527;52.376;8.990;2023-09-19T06:05:32;9.30;;;3.70;;
6973;SDS011;3527;52.376;8.990;2023-09-19T06:07:59;12.93;;;3.50;;
6973;SDS011;3527;52.376;8.990;2023-09-19T06:10:27;9.33;;;3.47;;
6973;SDS011;3527;52.376;8.990;2023-09-19T06:12:58;14.20;;;3.57;;
6973;SDS011;3527;52.376;8.990;2023-09-19T06:15:25;8.17;;;2.87;;
6973;SDS011;3527;52.376;8.990;2023-09-19T06:17:53;16.43;;;3.50;;
6973;SDS011;3527;52.376;8.990;2023-09-19T06:20:22;11.70;;;3.30;;
6973;SDS011;3527;52.376;8.990;2023-09-19T06:22:49;11.87;;;3.17;;
6973;SDS011;3527;52.376;8.990;2023-09-19T06:25:17;10.50;;;3.10;;
6973;SDS011;3527;52.376;8.990;2023-09-19T06:30:13;9.43;;;2.90;;
6973;SDS011;3527;52.376;8.990;2023-09-19T06:32:41;16.13;;;2.97;;
6973;SDS011;3527;52.376;8.990;2023-09-19T06:35:14;9.93;;;3.13;;
6973;SDS011;3527;52.376;8.990;2023-09-19T06:37:41;8.80;;;2.80;;
6973;SDS011;3527;52.376;8.990;2023-09-19T06:40:08;12.07;;;2.97;;
6973;SDS011;3527;52.376;8.990;2023-09-19T06:42:46;11.60;;;3.43;;
6973;SDS011;3527;52.376;8.990;2023-09-19T06:45:14;9.67;;;3.00;;
6973;SDS011;3527;52.376;8.990;2023-09-19T06:47:46;10.80;;;3.03;;
6973;SDS011;3527;52.376;8.990;2023-09-19T06:50:20;13.73;;;3.07;;
6973;SDS011;3527;52.376;8.990;2023-09-19T06:52:49;11.40;;;3.23;;
6973;SDS011;3527;52.376;8.990;2023-09-19T06:55:18;8.87;;;2.73;;
6973;SDS011;3527;52.376;8.990;2023-09-19T06:57:46;10.33;;;2.60;;
6973;SDS011;3527;52.376;8.990;2023-09-19T07:00:14;12.20;;;3.00;;
6973;SDS011;3527;52.376;8.990;2023-09-19T07:02:56;10.53;;;3.07;;
6973;SDS011;3527;52.376;8.990;2023-09-19T07:05:23;8.03;;;2.63;;
6973;SDS011;3527;52.376;8.990;2023-09-19T07:07:50;12.43;;;3.43;;
6973;SDS011;3527;52.376;8.990;2023-09-19T07:10:16;11.37;;;3.10;;
6973;SDS011;3527;52.376;8.990;2023-09-19T07:12:44;6.40;;;2.63;;
6973;SDS011;3527;52.376;8.990;2023-09-19T07:15:11;7.47;;;2.60;;
6973;SDS011;3527;52.376;8.990;2023-09-19T07:17:38;8.93;;;3.03;;
6973;SDS011;3527;52.376;8.990;2023-09-19T07:20:05;8.33;;;2.67;;
6973;SDS011;3527;52.376;8.990;2023-09-19T07:22:34;10.73;;;2.60;;
6973;SDS011;3527;52.376;8.990;2023-09-19T07:25:02;12.53;;;2.80;;
6973;SDS011;3527;52.376;8.990;2023-09-19T07:27:30;7.63;;;2.70;;
6973;SDS011;3527;52.376;8.990;2023-09-19T07:29:56;6.43;;;2.30;;
6973;SDS011;3527;52.376;8.990;2023-09-19T07:32:26;8.00;;;2.30;;
6973;SDS011;3527;52.376;8.990;2023-09-19T07:34:52;7.20;;;2.80;;
6973;SDS011;3527;52.376;8.990;2023-09-19T07:37:21;9.57;;;3.17;;
6973;SDS011;3527;52.376;8.990;2023-09-19T07:39:48;9.57;;;2.97;;
6973;SDS011;3527;52.376;8.990;2023-09-19T07:42:15;8.57;;;2.37;;
6973;SDS011;3527;52.376;8.990;2023-09-19T07:44:44;9.23;;;2.43;;
6973;SDS011;3527;52.376;8.990;2023-09-19T07:47:14;7.83;;;2.53;;
6973;SDS011;3527;52.376;8.990;2023-09-19T07:49:40;7.83;;;2.50;;
6973;SDS011;3527;52.376;8.990;2023-09-19T07:52:09;8.40;;;2.93;;
6973;SDS011;3527;52.376;8.990;2023-09-19T07:54:37;8.77;;;2.67;;
6973;SDS011;3527;52.376;8.990;2023-09-19T07:57:05;10.20;;;2.70;;
6973;SDS011;3527;52.376;8.990;2023-09-19T07:59:32;7.83;;;2.20;;
6973;SDS011;3527;52.376;8.990;2023-09-19T08:01:59;11.10;;;3.03;;
6973;SDS011;3527;52.376;8.990;2023-09-19T08:04:27;10.27;;;2.83;;
6973;SDS011;3527;52.376;8.990;2023-09-19T08:06:55;10.23;;;2.60;;
6973;SDS011;3527;52.376;8.990;2023-09-19T08:09:22;6.63;;;2.20;;
6973;SDS011;3527;52.376;8.990;2023-09-19T08:11:51;10.53;;;2.47;;
6973;SDS011;3527;52.376;8.990;2023-09-19T08:14:18;6.43;;;2.87;;
6973;SDS011;3527;52.376;8.990;2023-09-19T08:16:45;6.70;;;2.33;;
6973;SDS011;3527;52.376;8.990;2023-09-19T08:19:12;7.23;;;2.60;;
6973;SDS011;3527;52.376;8.990;2023-09-19T08:21:39;8.23;;;2.40;;
6973;SDS011;3527;52.376;8.990;2023-09-19T08:24:06;7.80;;;2.67;;
6973;SDS011;3527;52.376;8.990;2023-09-19T08:26:35;12.93;;;2.97;;
6973;SDS011;3527;52.376;8.990;2023-09-19T08:29:04;8.70;;;2.70;;
6973;SDS011;3527;52.376;8.990;2023-09-19T08:31:33;9.93;;;2.80;;
6973;SDS011;3527;52.376;8.990;2023-09-19T08:34:00;7.43;;;2.83;;
6973;SDS011;3527;52.376;8.990;2023-09-19T08:36:27;7.73;;;2.70;;
6973;SDS011;3527;52.376;8.990;2023-09-19T08:38:54;7.60;;;2.57;;
6973;SDS011;3527;52.376;8.990;2023-09-19T08:41:20;8.87;;;2.80;;
6973;SDS011;3527;52.376;8.990;2023-09-19T08:43:47;14.57;;;2.93;;
6973;SDS011;3527;52.376;8.990;2023-09-19T08:46:15;10.90;;;2.67;;
6973;SDS011;3527;52.376;8.990;2023-09-19T08:49:04;11.60;;;2.83;;
6973;SDS011;3527;52.376;8.990;2023-09-19T08:51:42;7.87;;;2.93;;
6973;SDS011;3527;52.376;8.990;2023-09-19T08:54:19;10.37;;;3.40;;
6973;SDS011;3527;52.376;8.990;2023-09-19T08:56:49;9.73;;;2.70;;
6973;SDS011;3527;52.376;8.990;2023-09-19T08:59:16;6.97;;;2.77;;
6973;SDS011;3527;52.376;8.990;2023-09-19T09:01:50;8.63;;;3.00;;
6973;SDS011;3527;52.376;8.990;2023-09-19T09:04:20;6.03;;;2.50;;
6973;SDS011;3527;52.376;8.990;2023-09-19T09:06:49;8.43;;;3.20;;
6973;SDS011;3527;52.376;8.990;2023-09-19T09:09:19;9.93;;;2.93;;
6973;SDS011;3527;52.376;8.990;2023-09-19T09:11:48;7.13;;;3.17;;
6973;SDS011;3527;52.376;8.990;2023-09-19T09:14:14;8.13;;;3.47;;
6973;SDS011;3527;52.376;8.990;2023-09-19T09:16:41;8.17;;;3.50;;
6973;SDS011;3527;52.376;8.990;2023-09-19T09:19:08;7.87;;;2.93;;
6973;SDS011;3527;52.376;8.990;2023-09-19T09:21:35;12.43;;;3.47;;
6973;SDS011;3527;52.376;8.990;2023-09-19T09:26:51;11.07;;;3.03;;
6973;SDS011;3527;52.376;8.990;2023-09-19T09:29:42;9.37;;;2.80;;
6973;SDS011;3527;52.376;8.990;2023-09-19T09:32:16;16.03;;;2.97;;
6973;SDS011;3527;52.376;8.990;2023-09-19T09:34:45;6.57;;;2.57;;
6973;SDS011;3527;52.376;8.990;2023-09-19T09:37:13;7.63;;;3.43;;
6973;SDS011;3527;52.376;8.990;2023-09-19T09:39:42;6.80;;;3.03;;
6973;SDS011;3527;52.376;8.990;2023-09-19T09:42:28;9.50;;;3.10;;
6973;SDS011;3527;52.376;8.990;2023-09-19T09:47:44;5.90;;;2.97;;
6973;SDS011;3527;52.376;8.990;2023-09-19T09:50:28;12.73;;;3.27;;
6973;SDS011;3527;52.376;8.990;2023-09-19T09:52:56;6.03;;;3.07;;
6973;SDS011;3527;52.376;8.990;2023-09-19T09:56:02;8.97;;;3.50;;
6973;SDS011;3527;52.376;8.990;2023-09-19T09:58:36;9.63;;;3.80;;
6973;SDS011;3527;52.376;8.990;2023-09-19T10:01:05;8.30;;;3.30;;
6973;SDS011;3527;52.376;8.990;2023-09-19T10:03:36;10.73;;;3.50;;
6973;SDS011;3527;52.376;8.990;2023-09-19T10:06:07;8.40;;;3.23;;
6973;SDS011;3527;52.376;8.990;2023-09-19T10:11:32;10.83;;;3.57;;
6973;SDS011;3527;52.376;8.990;2023-09-19T10:13:59;8.20;;;3.37;;
6973;SDS011;3527;52.376;8.990;2023-09-19T10:16:29;11.10;;;3.10;;
6973;SDS011;3527;52.376;8.990;2023-09-19T10:18:58;8.33;;;3.70;;
6973;SDS011;3527;52.376;8.990;2023-09-19T10:21:27;8.63;;;3.50;;
6973;SDS011;3527;52.376;8.990;2023-09-19T10:23:59;10.50;;;3.30;;
6973;SDS011;3527;52.376;8.990;2023-09-19T10:26:27;6.07;;;3.27;;
6973;SDS011;3527;52.376;8.990;2023-09-19T10:28:57;9.33;;;3.57;;
6973;SDS011;3527;52.376;8.990;2023-09-19T10:31:28;10.13;;;3.67;;
6973;SDS011;3527;52.376;8.990;2023-09-19T10:33:55;10.00;;;3.10;;
6973;SDS011;3527;52.376;8.990;2023-09-19T10:36:23;9.10;;;3.50;;
6973;SDS011;3527;52.376;8.990;2023-09-19T10:38:52;10.83;;;3.60;;
6973;SDS011;3527;52.376;8.990;2023-09-19T10:41:21;5.90;;;3.27;;
6973;SDS011;3527;52.376;8.990;2023-09-19T10:43:48;7.00;;;2.90;;
6973;SDS011;3527;52.376;8.990;2023-09-19T10:46:15;8.00;;;3.03;;
6973;SDS011;3527;52.376;8.990;2023-09-19T10:48:42;10.90;;;3.97;;
6973;SDS011;3527;52.376;8.990;2023-09-19T10:51:19;9.27;;;3.43;;
6973;SDS011;3527;52.376;8.990;2023-09-19T10:53:52;9.03;;;3.30;;
6973;SDS011;3527;52.376;8.990;2023-09-19T10:56:27;7.13;;;2.93;;
6973;SDS011;3527;52.376;8.990;2023-09-19T10:59:15;10.03;;;3.57;;
6973;SDS011;3527;52.376;8.990;2023-09-19T11:01:48;5.47;;;3.00;;
6973;SDS011;3527;52.376;8.990;2023-09-19T11:07:08;8.70;;;2.80;;
6973;SDS011;3527;52.376;8.990;2023-09-19T11:09:50;6.93;;;2.80;;
6973;SDS011;3527;52.376;8.990;2023-09-19T11:15:02;7.13;;;2.90;;
6973;SDS011;3527;52.376;8.990;2023-09-19T11:30:45;7.23;;;2.60;;
6973;SDS011;3527;52.376;8.990;2023-09-19T11:33:19;8.40;;;3.00;;
6973;SDS011;3527;52.376;8.990;2023-09-19T11:39:03;8.93;;;2.93;;
6973;SDS011;3527;52.376;8.990;2023-09-19T11:41:39;7.17;;;2.83;;
6973;SDS011;3527;52.376;8.990;2023-09-19T11:46:33;7.07;;;3.20;;
6973;SDS011;3527;52.376;8.990;2023-09-19T11:49:07;9.47;;;3.37;;
6973;SDS011;3527;52.376;8.990;2023-09-19T11:51:42;7.33;;;2.90;;
6973;SDS011;3527;52.376;8.990;2023-09-19T11:54:14;10.93;;;3.03;;
6973;SDS011;3527;52.376;8.990;2023-09-19T11:56:55;6.60;;;2.90;;
6973;SDS011;3527;52.376;8.990;2023-09-19T11:59:22;7.60;;;3.07;;
6973;SDS011;3527;52.376;8.990;2023-09-19T12:01:53;6.43;;;2.53;;
6973;SDS011;3527;52.376;8.990;2023-09-19T12:04:39;10.67;;;3.63;;
6973;SDS011;3527;52.376;8.990;2023-09-19T12:07:08;6.00;;;2.67;;
6973;SDS011;3527;52.376;8.990;2023-09-19T12:09:43;9.80;;;3.30;;
6973;SDS011;3527;52.376;8.990;2023-09-19T12:12:10;7.23;;;3.10;;
6973;SDS011;3527;52.376;8.990;2023-09-19T12:14:47;7.93;;;2.77;;
6973;SDS011;3527;52.376;8.990;2023-09-19T12:17:14;7.80;;;2.87;;
6973;SDS011;3527;52.376;8.990;2023-09-19T12:19:49;8.23;;;2.93;;
6973;SDS011;3527;52.376;8.990;2023-09-19T12:22:16;7.23;;;2.80;;
6973;SDS011;3527;52.376;8.990;2023-09-19T12:24:44;7.10;;;2.50;;
6973;SDS011;3527;52.376;8.990;2023-09-19T12:27:11;9.70;;;3.00;;
6973;SDS011;3527;52.376;8.990;2023-09-19T12:29:42;11.97;;;3.23;;
6973;SDS011;3527;52.376;8.990;2023-09-19T12:32:09;8.90;;;2.60;;
6973;SDS011;3527;52.376;8.990;2023-09-19T12:34:36;6.57;;;3.07;;
6973;SDS011;3527;52.376;8.990;2023-09-19T12:37:09;8.37;;;2.83;;
6973;SDS011;3527;52.376;8.990;2023-09-19T12:39:42;7.70;;;2.87;;
6973;SDS011;3527;52.376;8.990;2023-09-19T12:42:10;7.57;;;2.27;;
6973;SDS011;3527;52.376;8.990;2023-09-19T12:44:41;5.37;;;2.00;;
6973;SDS011;3527;52.376;8.990;2023-09-19T12:47:13;7.07;;;2.30;;
6973;SDS011;3527;52.376;8.990;2023-09-19T12:53:06;6.80;;;2.47;;
6973;SDS011;3527;52.376;8.990;2023-09-19T12:55:27;6.27;;;2.20;;
6973;SDS011;3527;52.376;8.990;2023-09-19T12:57:55;7.37;;;2.83;;
6973;SDS011;3527;52.376;8.990;2023-09-19T13:00:21;10.90;;;3.23;;
6973;SDS011;3527;52.376;8.990;2023-09-19T13:05:52;6.77;;;2.30;;
6973;SDS011;3527;52.376;8.990;2023-09-19T13:08:21;7.90;;;2.50;;
6973;SDS011;3527;52.376;8.990;2023-09-19T13:13:27;10.47;;;2.60;;
6973;SDS011;3527;52.376;8.990;2023-09-19T13:15:55;8.57;;;2.70;;
6973;SDS011;3527;52.376;8.990;2023-09-19T13:18:24;9.93;;;3.07;;
6973;SDS011;3527;52.376;8.990;2023-09-19T13:21:06;8.83;;;2.57;;
6973;SDS011;3527;52.376;8.990;2023-09-19T13:23:37;11.07;;;2.70;;
6973;SDS011;3527;52.376;8.990;2023-09-19T13:26:04;10.13;;;3.13;;
6973;SDS011;3527;52.376;8.990;2023-09-19T13:28:33;6.07;;;2.30;;
6973;SDS011;3527;52.376;8.990;2023-09-19T13:31:00;6.90;;;2.63;;
6973;SDS011;3527;52.376;8.990;2023-09-19T13:33:27;9.60;;;2.80;;
6973;SDS011;3527;52.376;8.990;2023-09-19T13:35:56;8.47;;;2.50;;
6973;SDS011;3527;52.376;8.990;2023-09-19T13:38:23;5.07;;;2.17;;
6973;SDS011;3527;52.376;8.990;2023-09-19T13:40:50;7.03;;;2.70;;
6973;SDS011;3527;52.376;8.990;2023-09-19T13:43:19;7.63;;;2.70;;
6973;SDS011;3527;52.376;8.990;2023-09-19T13:45:48;6.83;;;2.40;;
6973;SDS011;3527;52.376;8.990;2023-09-19T13:48:16;6.90;;;2.63;;
6973;SDS011;3527;52.376;8.990;2023-09-19T13:50:46;7.30;;;2.53;;
6973;SDS011;3527;52.376;8.990;2023-09-19T13:53:14;9.47;;;2.80;;
6973;SDS011;3527;52.376;8.990;2023-09-19T13:55:40;7.73;;;2.80;;
6973;SDS011;3527;52.376;8.990;2023-09-19T13:58:08;10.53;;;2.60;;
6973;SDS011;3527;52.376;8.990;2023-09-19T14:00:37;6.77;;;2.53;;
6973;SDS011;3527;52.376;8.990;2023-09-19T14:03:05;7.73;;;2.63;;
6973;SDS011;3527;52.376;8.990;2023-09-19T14:05:32;7.47;;;2.37;;
6973;SDS011;3527;52.376;8.990;2023-09-19T14:07:59;8.70;;;2.33;;
6973;SDS011;3527;52.376;8.990;2023-09-19T14:10:26;8.10;;;2.07;;
6973;SDS011;3527;52.376;8.990;2023-09-19T14:12:54;8.13;;;2.83;;
6973;SDS011;3527;52.376;8.990;2023-09-19T14:15:20;5.83;;;2.37;;
6973;SDS011;3527;52.376;8.990;2023-09-19T14:17:56;6.77;;;2.30;;
6973;SDS011;3527;52.376;8.990;2023-09-19T14:20:23;8.33;;;2.50;;
6973;SDS011;3527;52.376;8.990;2023-09-19T14:22:50;7.93;;;2.07;;
6973;SDS011;3527;52.376;8.990;2023-09-19T14:25:17;7.50;;;2.27;;
6973;SDS011;3527;52.376;8.990;2023-09-19T14:27:44;6.87;;;2.03;;
6973;SDS011;3527;52.376;8.990;2023-09-19T14:30:10;8.57;;;2.67;;
6973;SDS011;3527;52.376;8.990;2023-09-19T14:32:37;4.80;;;2.10;;
6973;SDS011;3527;52.376;8.990;2023-09-19T14:35:06;5.13;;;2.20;;
6973;SDS011;3527;52.376;8.990;2023-09-19T14:37:33;6.10;;;2.63;;
6973;SDS011;3527;52.376;8.990;2023-09-19T14:40:00;6.07;;;2.07;;
6973;SDS011;3527;52.376;8.990;2023-09-19T14:42:27;4.87;;;1.93;;
6973;SDS011;3527;52.376;8.990;2023-09-19T14:44:53;6.20;;;2.10;;
6973;SDS011;3527;52.376;8.990;2023-09-19T14:47:20;4.93;;;2.37;;
6973;SDS011;3527;52.376;8.990;2023-09-19T14:49:47;5.80;;;2.00;;
6973;SDS011;3527;52.376;8.990;2023-09-19T14:52:14;5.73;;;2.07;;
6973;SDS011;3527;52.376;8.990;2023-09-19T14:54:42;7.00;;;2.10;;
6973;SDS011;3527;52.376;8.990;2023-09-19T14:57:09;5.87;;;2.20;;
6973;SDS011;3527;52.376;8.990;2023-09-19T14:59:36;8.73;;;2.30;;
6973;SDS011;3527;52.376;8.990;2023-09-19T15:02:04;3.87;;;2.10;;
6973;SDS011;3527;52.376;8.990;2023-09-19T15:04:31;7.70;;;2.20;;
6973;SDS011;3527;52.376;8.990;2023-09-19T15:06:58;4.97;;;2.27;;
6973;SDS011;3527;52.376;8.990;2023-09-19T15:09:25;5.20;;;1.50;;
6973;SDS011;3527;52.376;8.990;2023-09-19T15:11:53;4.63;;;1.73;;
6973;SDS011;3527;52.376;8.990;2023-09-19T15:14:20;4.03;;;2.20;;
6973;SDS011;3527;52.376;8.990;2023-09-19T15:16:47;4.70;;;1.97;;
6973;SDS011;3527;52.376;8.990;2023-09-19T15:19:14;4.47;;;2.20;;
6973;SDS011;3527;52.376;8.990;2023-09-19T15:21:41;4.50;;;1.90;;
6973;SDS011;3527;52.376;8.990;2023-09-19T15:24:08;5.20;;;2.20;;
6973;SDS011;3527;52.376;8.990;2023-09-19T15:26:36;7.80;;;2.23;;
6973;SDS011;3527;52.376;8.990;2023-09-19T15:29:06;5.30;;;1.90;;
6973;SDS011;3527;52.376;8.990;2023-09-19T15:31:34;6.23;;;2.00;;
6973;SDS011;3527;52.376;8.990;2023-09-19T15:34:03;5.37;;;1.90;;
6973;SDS011;3527;52.376;8.990;2023-09-19T15:36:30;4.57;;;2.03;;
6973;SDS011;3527;52.376;8.990;2023-09-19T15:41:30;5.77;;;1.80;;
6973;SDS011;3527;52.376;8.990;2023-09-19T15:43:57;4.93;;;1.87;;
6973;SDS011;3527;52.376;8.990;2023-09-19T15:46:26;4.30;;;1.70;;
6973;SDS011;3527;52.376;8.990;2023-09-19T15:49:01;5.23;;;1.83;;
6973;SDS011;3527;52.376;8.990;2023-09-19T15:51:28;7.37;;;2.10;;
6973;SDS011;3527;52.376;8.990;2023-09-19T15:53:55;3.60;;;1.70;;
6973;SDS011;3527;52.376;8.990;2023-09-19T15:56:23;3.87;;;1.93;;
6973;SDS011;3527;52.376;8.990;2023-09-19T15:58:50;3.73;;;1.70;;
6973;SDS011;3527;52.376;8.990;2023-09-19T16:01:17;5.93;;;2.10;;
6973;SDS011;3527;52.376;8.990;2023-09-19T16:03:48;4.97;;;1.83;;
6973;SDS011;3527;52.376;8.990;2023-09-19T16:06:15;3.80;;;1.60;;
6973;SDS011;3527;52.376;8.990;2023-09-19T16:08:44;5.63;;;1.40;;
6973;SDS011;3527;52.376;8.990;2023-09-19T16:11:12;3.87;;;1.40;;
6973;SDS011;3527;52.376;8.990;2023-09-19T16:13:39;7.40;;;2.07;;
6973;SDS011;3527;52.376;8.990;2023-09-19T16:16:08;5.23;;;1.63;;
6973;SDS011;3527;52.376;8.990;2023-09-19T16:18:39;7.43;;;2.07;;
6973;SDS011;3527;52.376;8.990;2023-09-19T16:21:06;4.10;;;1.53;;
6973;SDS011;3527;52.376;8.990;2023-09-19T16:23:37;3.60;;;1.70;;